createdAt,value
2019-01-26T00:00:50.371Z,39.90
2019-01-26T00:01:50.366Z,43.70
2019-01-26T00:02:50.363Z,42.30
2019-01-26T00:03:50.375Z,45.80
2019-01-26T00:04:50.324Z,46.70
2019-01-26T00:05:50.309Z,42.00
2019-01-26T00:06:50.322Z,44.40
2019-01-26T00:07:50.287Z,44.80
2019-01-26T00:08:50.295Z,46.50
2019-01-26T00:09:50.266Z,45.30
2019-01-26T00:10:50.258Z,45.80
2019-01-26T00:11:50.253Z,44.00
2019-01-26T00:12:50.233Z,45.10
2019-01-26T00:13:50.257Z,43.60
2019-01-26T00:14:50.221Z,45.30
2019-01-26T00:15:50.201Z,43.40
2019-01-26T00:16:50.199Z,43.40
2019-01-26T00:17:50.175Z,44.40
2019-01-26T00:18:50.188Z,43.80
2019-01-26T00:19:50.163Z,43.60
2019-01-26T00:20:50.150Z,40.60
2019-01-26T00:21:50.134Z,45.50
2019-01-26T00:22:50.122Z,47.30
2019-01-26T00:23:50.138Z,44.10
2019-01-26T00:24:50.102Z,46.20
2019-01-26T00:25:50.088Z,38.50
2019-01-26T00:26:50.081Z,45.00
2019-01-26T00:27:50.074Z,45.30
2019-01-26T00:28:50.090Z,45.70
2019-01-26T00:29:50.048Z,45.10
2019-01-26T00:30:50.039Z,43.70
2019-01-26T00:31:50.022Z,43.10
2019-01-26T00:32:50.013Z,42.10
2019-01-26T00:33:50.010Z,46.00
2019-01-26T00:34:50.012Z,40.90
2019-01-26T00:35:49.981Z,48.20
2019-01-26T00:36:49.969Z,44.10
2019-01-26T00:37:49.958Z,45.20
2019-01-26T00:38:49.946Z,46.50
2019-01-26T00:39:49.959Z,47.60
2019-01-26T00:40:49.921Z,43.50
2019-01-26T00:41:49.912Z,45.10
2019-01-26T00:42:49.906Z,42.60
2019-01-26T00:43:49.890Z,44.20
2019-01-26T00:44:49.896Z,42.50
2019-01-26T00:45:49.875Z,46.20
2019-01-26T00:46:49.859Z,46.20
2019-01-26T00:47:49.844Z,45.40
2019-01-26T00:48:49.833Z,45.40
2019-01-26T00:49:49.843Z,44.00
2019-01-26T00:50:49.812Z,45.70
2019-01-26T00:51:49.826Z,44.00
2019-01-26T00:52:49.796Z,41.60
2019-01-26T00:53:49.785Z,43.30
2019-01-26T00:54:49.791Z,47.50
2019-01-26T00:55:49.758Z,40.70
2019-01-26T00:56:49.752Z,46.30
2019-01-26T00:57:49.738Z,45.70
2019-01-26T00:58:49.730Z,51.40
2019-01-26T00:59:49.732Z,46.50
2019-01-26T01:00:49.707Z,45.10
2019-01-26T01:01:49.695Z,44.80
2019-01-26T01:02:49.683Z,51.70
2019-01-26T01:03:49.681Z,47.20
2019-01-26T01:04:49.683Z,46.10
2019-01-26T01:05:49.658Z,44.30
2019-01-26T01:06:49.641Z,46.60
2019-01-26T01:07:49.677Z,47.90
2019-01-26T01:08:49.623Z,50.10
2019-01-26T01:09:49.671Z,46.90
2019-01-26T01:10:49.618Z,46.40
2019-01-26T01:11:49.584Z,46.90
2019-01-26T01:12:49.574Z,47.30
2019-01-26T01:13:49.562Z,46.40
2019-01-26T01:14:49.552Z,42.30
2019-01-26T01:15:49.561Z,48.30
2019-01-26T01:16:49.539Z,45.00
2019-01-26T01:17:49.519Z,47.40
2019-01-26T01:18:49.538Z,47.90
2019-01-26T01:19:49.505Z,45.20
2019-01-26T01:20:49.533Z,48.30
2019-01-26T01:21:49.523Z,46.00
2019-01-26T01:22:49.471Z,43.50
2019-01-26T01:23:49.452Z,45.30
2019-01-26T01:24:49.441Z,43.00
2019-01-26T01:25:49.459Z,47.60
2019-01-26T01:26:49.421Z,50.30
2019-01-26T01:27:49.410Z,47.10
2019-01-26T01:28:49.409Z,49.40
2019-01-26T01:29:49.391Z,43.50
2019-01-26T01:30:49.411Z,47.20
2019-01-26T01:31:49.374Z,46.50
2019-01-26T01:32:49.356Z,46.90
2019-01-26T01:33:49.346Z,45.40
2019-01-26T01:34:49.369Z,42.20
2019-01-26T01:35:49.339Z,40.40
2019-01-26T01:36:49.328Z,48.70
2019-01-26T01:37:49.313Z,42.80
2019-01-26T01:38:49.290Z,44.10
2019-01-26T01:39:49.284Z,47.30
2019-01-26T01:40:49.282Z,44.40
2019-01-26T01:41:49.278Z,43.00
2019-01-26T01:42:49.247Z,45.90
2019-01-26T01:43:49.237Z,44.60
2019-01-26T01:44:49.224Z,48.30
2019-01-26T01:45:49.224Z,46.50
2019-01-26T01:46:49.227Z,47.80
2019-01-26T01:47:49.245Z,50.90
2019-01-26T01:48:49.185Z,44.80
2019-01-26T01:49:49.175Z,48.00
2019-01-26T01:50:49.160Z,45.60
2019-01-26T01:51:49.165Z,46.40
2019-01-26T01:52:49.137Z,47.40
2019-01-26T01:53:49.145Z,48.10
2019-01-26T01:54:49.115Z,42.90
2019-01-26T01:55:49.111Z,46.30
2019-01-26T01:56:49.118Z,43.40
2019-01-26T01:57:49.083Z,47.30
2019-01-26T01:58:49.077Z,46.30
2019-01-26T01:59:49.058Z,44.40
2019-01-26T02:00:49.051Z,42.00
2019-01-26T02:01:49.067Z,42.30
2019-01-26T02:02:49.032Z,46.10
2019-01-26T02:03:49.018Z,42.00
2019-01-26T02:04:49.013Z,45.60
2019-01-26T02:05:48.995Z,41.50
2019-01-26T02:06:49.009Z,42.30
2019-01-26T02:07:48.987Z,43.60
2019-01-26T02:08:48.969Z,40.30
2019-01-26T02:09:48.965Z,43.50
2019-01-26T02:10:48.941Z,42.60
2019-01-26T02:11:48.929Z,46.40
2019-01-26T02:12:48.938Z,41.50
2019-01-26T02:13:48.906Z,42.00
2019-01-26T02:14:48.902Z,42.80
2019-01-26T02:15:48.888Z,44.60
2019-01-26T02:16:50.217Z,41.50
2019-01-26T02:17:48.888Z,43.30
2019-01-26T02:18:48.853Z,44.30
2019-01-26T02:19:48.842Z,41.60
2019-01-26T02:20:48.838Z,38.70
2019-01-26T02:21:48.828Z,38.50
2019-01-26T02:22:48.827Z,41.80
2019-01-26T02:23:48.801Z,40.70
2019-01-26T02:24:48.786Z,44.80
2019-01-26T02:25:48.797Z,42.00
2019-01-26T02:26:48.775Z,39.60
2019-01-26T02:27:48.791Z,38.00
2019-01-26T02:28:48.745Z,43.00
2019-01-26T02:29:48.735Z,37.90
2019-01-26T02:30:48.723Z,38.90
2019-01-26T02:31:48.713Z,41.10
2019-01-26T02:32:48.703Z,38.60
2019-01-26T02:33:48.708Z,37.10
2019-01-26T02:34:48.681Z,39.50
2019-01-26T02:35:48.668Z,38.40
2019-01-26T02:36:48.661Z,39.20
2019-01-26T02:37:48.651Z,37.70
2019-01-26T02:38:48.664Z,36.40
2019-01-26T02:39:48.624Z,41.10
2019-01-26T02:40:48.617Z,40.50
2019-01-26T02:41:48.606Z,37.30
2019-01-26T02:42:48.593Z,40.00
2019-01-26T02:43:48.613Z,40.60
2019-01-26T02:44:48.572Z,40.00
2019-01-26T02:45:48.564Z,38.00
2019-01-26T02:46:48.558Z,36.20
2019-01-26T02:47:48.537Z,37.80
2019-01-26T02:48:48.555Z,35.50
2019-01-26T02:49:48.516Z,35.20
2019-01-26T02:50:48.526Z,36.60
2019-01-26T02:51:48.505Z,35.40
2019-01-26T02:52:48.484Z,36.60
2019-01-26T02:53:48.471Z,34.50
2019-01-26T02:54:48.479Z,35.60
2019-01-26T02:55:48.452Z,35.30
2019-01-26T02:56:48.463Z,34.40
2019-01-26T02:57:48.430Z,35.40
2019-01-26T02:58:48.425Z,35.30
2019-01-26T02:59:48.425Z,36.40
2019-01-26T03:00:48.397Z,33.40
2019-01-26T03:01:48.384Z,33.70
2019-01-26T03:02:48.381Z,31.60
2019-01-26T03:03:48.364Z,31.30
2019-01-26T03:04:48.371Z,33.90
2019-01-26T03:05:48.342Z,33.60
2019-01-26T03:06:48.331Z,34.30
2019-01-26T03:07:48.319Z,33.70
2019-01-26T03:08:48.318Z,33.10
2019-01-26T03:09:48.317Z,33.80
2019-01-26T03:10:48.285Z,32.40
2019-01-26T03:11:48.277Z,32.60
2019-01-26T03:12:48.267Z,31.70
2019-01-26T03:13:48.255Z,33.00
2019-01-26T03:14:48.272Z,30.40
2019-01-26T03:15:48.244Z,33.10
2019-01-26T03:16:48.220Z,31.20
2019-01-26T03:17:48.215Z,32.30
2019-01-26T03:18:48.203Z,27.90
2019-01-26T03:19:48.211Z,29.80
2019-01-26T03:20:48.180Z,30.30
2019-01-26T03:21:48.175Z,33.40
2019-01-26T03:22:48.155Z,28.30
2019-01-26T03:23:48.150Z,29.10
2019-01-26T03:24:48.156Z,30.20
2019-01-26T03:25:48.127Z,27.20
2019-01-26T03:26:48.113Z,30.70
2019-01-26T03:27:48.143Z,29.20
2019-01-26T03:28:48.106Z,32.30
2019-01-26T03:29:48.101Z,30.00
2019-01-26T03:30:48.086Z,29.10
2019-01-26T03:31:48.076Z,30.00
2019-01-26T03:32:48.060Z,28.80
2019-01-26T03:33:48.042Z,28.10
2019-01-26T03:34:48.033Z,26.80
2019-01-26T03:35:48.045Z,26.30
2019-01-26T03:36:48.017Z,26.70
2019-01-26T03:37:47.994Z,27.80
2019-01-26T03:38:47.981Z,30.40
2019-01-26T03:39:47.979Z,27.50
2019-01-26T03:40:47.978Z,28.10
2019-01-26T03:41:47.957Z,26.20
2019-01-26T03:42:47.950Z,26.90
2019-01-26T03:43:47.929Z,26.80
2019-01-26T03:44:47.928Z,27.90
2019-01-26T03:45:47.924Z,25.10
2019-01-26T03:46:47.916Z,29.20
2019-01-26T03:47:47.892Z,27.20
2019-01-26T03:48:47.873Z,28.00
2019-01-26T03:49:47.877Z,25.80
2019-01-26T03:50:47.854Z,27.30
2019-01-26T03:51:47.888Z,28.20
2019-01-26T03:52:47.833Z,27.50
2019-01-26T03:53:47.826Z,25.00
2019-01-26T03:54:47.808Z,27.30
2019-01-26T03:55:47.799Z,29.20
2019-01-26T03:56:47.808Z,27.80
2019-01-26T03:57:47.777Z,27.20
2019-01-26T03:58:47.770Z,25.20
2019-01-26T03:59:47.761Z,27.30
2019-01-26T04:00:47.753Z,25.80
2019-01-26T04:01:47.748Z,25.20
2019-01-26T04:02:47.755Z,24.90
2019-01-26T04:03:47.714Z,28.10
2019-01-26T04:04:47.705Z,27.30
2019-01-26T04:05:47.694Z,27.80
2019-01-26T04:06:47.684Z,24.70
2019-01-26T04:07:47.682Z,27.00
2019-01-26T04:08:47.656Z,27.10
2019-01-26T04:09:47.647Z,30.00
2019-01-26T04:10:47.634Z,29.20
2019-01-26T04:11:47.628Z,28.60
2019-01-26T04:12:47.629Z,30.40
2019-01-26T04:13:47.602Z,26.40
2019-01-26T04:14:47.595Z,27.30
2019-01-26T04:15:47.582Z,27.20
2019-01-26T04:16:47.570Z,26.70
2019-01-26T04:17:47.588Z,31.00
2019-01-26T04:18:47.556Z,27.80
2019-01-26T04:19:47.536Z,26.90
2019-01-26T04:20:47.525Z,28.00
2019-01-26T04:21:47.535Z,26.50
2019-01-26T04:22:47.505Z,28.30
2019-01-26T04:23:47.519Z,27.70
2019-01-26T04:24:47.482Z,26.30
2019-01-26T04:25:47.470Z,26.90
2019-01-26T04:26:47.461Z,26.30
2019-01-26T04:27:47.450Z,27.40
2019-01-26T04:28:47.457Z,26.20
2019-01-26T04:29:47.439Z,27.60
2019-01-26T04:30:47.416Z,27.40
2019-01-26T04:31:47.404Z,25.50
2019-01-26T04:32:47.422Z,25.50
2019-01-26T04:33:47.381Z,27.80
2019-01-26T04:34:47.398Z,28.60
2019-01-26T04:35:47.369Z,25.30
2019-01-26T04:36:47.353Z,23.90
2019-01-26T04:37:47.352Z,27.10
2019-01-26T04:38:47.356Z,24.00
2019-01-26T04:39:47.321Z,25.00
2019-01-26T04:40:47.314Z,26.10
2019-01-26T04:41:47.315Z,25.90
2019-01-26T04:42:47.303Z,28.20
2019-01-26T04:43:47.283Z,26.20
2019-01-26T04:44:47.283Z,27.40
2019-01-26T04:45:47.260Z,26.70
2019-01-26T04:46:47.255Z,27.00
2019-01-26T04:47:47.286Z,25.60
2019-01-26T04:48:47.245Z,27.50
2019-01-26T04:49:47.212Z,26.40
2019-01-26T04:50:47.217Z,27.50
2019-01-26T04:51:47.201Z,26.00
2019-01-26T04:52:47.177Z,25.00
2019-01-26T04:53:47.183Z,24.70
2019-01-26T04:54:47.161Z,27.20
2019-01-26T04:55:47.150Z,29.00
2019-01-26T04:56:47.133Z,26.40
2019-01-26T04:57:47.121Z,25.50
2019-01-26T04:58:47.127Z,26.70
2019-01-26T04:59:47.105Z,25.30
2019-01-26T05:00:47.096Z,27.90
2019-01-26T05:01:47.078Z,25.90
2019-01-26T05:02:47.067Z,24.50
2019-01-26T05:03:47.076Z,24.90
2019-01-26T05:04:47.047Z,26.20
2019-01-26T05:05:47.038Z,26.40
2019-01-26T05:06:47.031Z,28.80
2019-01-26T05:07:47.015Z,26.70
2019-01-26T05:08:47.021Z,24.50
2019-01-26T05:09:47.030Z,23.90
2019-01-26T05:10:46.981Z,24.70
2019-01-26T05:11:46.972Z,22.70
2019-01-26T05:12:46.973Z,24.10
2019-01-26T05:13:46.950Z,25.30
2019-01-26T05:14:46.976Z,23.90
2019-01-26T05:15:46.927Z,24.10
2019-01-26T05:16:46.920Z,23.30
2019-01-26T05:17:46.908Z,23.40
2019-01-26T05:18:46.927Z,23.90
2019-01-26T05:19:46.911Z,22.70
2019-01-26T05:20:46.873Z,23.60
2019-01-26T05:21:46.862Z,23.50
2019-01-26T05:22:46.851Z,25.10
2019-01-26T05:23:46.840Z,27.20
2019-01-26T05:24:46.857Z,24.50
2019-01-26T05:25:46.834Z,22.90
2019-01-26T05:26:46.814Z,22.30
2019-01-26T05:27:46.795Z,22.50
2019-01-26T05:28:46.786Z,24.30
2019-01-26T05:29:46.774Z,21.80
2019-01-26T05:30:46.785Z,23.20
2019-01-26T05:31:46.754Z,23.80
2019-01-26T05:32:46.745Z,22.50
2019-01-26T05:33:46.731Z,24.70
2019-01-26T05:34:46.719Z,23.30
2019-01-26T05:35:46.726Z,23.70
2019-01-26T05:36:46.711Z,25.10
2019-01-26T05:37:46.693Z,25.10
2019-01-26T05:38:46.675Z,24.70
2019-01-26T05:39:46.665Z,22.60
2019-01-26T05:40:46.675Z,22.90
2019-01-26T05:41:46.643Z,21.90
2019-01-26T05:42:46.646Z,21.90
2019-01-26T05:43:46.627Z,21.60
2019-01-26T05:44:46.613Z,22.20
2019-01-26T05:45:46.619Z,23.90
2019-01-26T05:46:46.595Z,22.80
2019-01-26T05:47:48.730Z,21.60
2019-01-26T05:48:46.567Z,21.40
2019-01-26T05:49:46.565Z,24.10
2019-01-26T05:50:46.567Z,22.30
2019-01-26T05:51:46.534Z,21.70
2019-01-26T05:52:46.550Z,23.60
2019-01-26T05:53:46.514Z,23.50
2019-01-26T05:54:46.503Z,21.30
2019-01-26T05:55:46.517Z,22.20
2019-01-26T05:56:46.494Z,22.50
2019-01-26T05:57:46.467Z,20.60
2019-01-26T05:58:46.461Z,24.40
2019-01-26T05:59:46.445Z,21.00
2019-01-26T06:00:46.451Z,25.00
2019-01-26T06:01:46.426Z,22.30
2019-01-26T06:02:46.420Z,22.70
2019-01-26T06:03:46.407Z,21.40
2019-01-26T06:04:46.398Z,26.60
2019-01-26T06:05:46.396Z,22.90
2019-01-26T06:06:46.371Z,22.20
2019-01-26T06:07:46.359Z,22.80
2019-01-26T06:08:46.373Z,25.70
2019-01-26T06:09:46.341Z,23.40
2019-01-26T06:10:46.356Z,23.80
2019-01-26T06:11:46.316Z,21.20
2019-01-26T06:12:46.306Z,24.60
2019-01-26T06:13:46.297Z,22.90
2019-01-26T06:14:46.285Z,23.00
2019-01-26T06:15:46.283Z,21.80
2019-01-26T06:16:46.440Z,22.20
2019-01-26T06:17:46.269Z,23.10
2019-01-26T06:18:46.240Z,26.00
2019-01-26T06:19:46.229Z,23.20
2019-01-26T06:20:46.219Z,24.40
2019-01-26T06:21:46.229Z,21.50
2019-01-26T06:22:46.200Z,25.60
2019-01-26T06:23:46.869Z,23.40
2019-01-26T06:24:46.191Z,22.30
2019-01-26T06:25:46.164Z,22.30
2019-01-26T06:26:46.174Z,23.50
2019-01-26T06:27:46.142Z,23.00
2019-01-26T06:28:46.135Z,21.30
2019-01-26T06:29:46.118Z,22.60
2019-01-26T06:30:46.108Z,22.40
2019-01-26T06:31:46.115Z,21.30
2019-01-26T06:32:46.086Z,20.10
2019-01-26T06:33:46.072Z,20.60
2019-01-26T06:34:46.077Z,19.70
2019-01-26T06:35:46.060Z,21.40
2019-01-26T06:36:46.065Z,24.10
2019-01-26T06:37:46.063Z,20.00
2019-01-26T06:38:46.019Z,23.50
2019-01-26T06:39:46.008Z,21.30
2019-01-26T06:40:46.002Z,18.90
2019-01-26T06:41:46.006Z,20.60
2019-01-26T06:42:45.977Z,19.80
2019-01-26T06:43:45.978Z,19.20
2019-01-26T06:44:45.971Z,17.90
2019-01-26T06:45:45.953Z,19.30
2019-01-26T06:46:45.948Z,20.60
2019-01-26T06:47:45.943Z,22.00
2019-01-26T06:48:45.912Z,20.20
2019-01-26T06:49:45.899Z,20.60
2019-01-26T06:50:45.890Z,21.60
2019-01-26T06:51:45.885Z,20.50
2019-01-26T06:52:45.918Z,21.00
2019-01-26T06:53:45.858Z,21.90
2019-01-26T06:54:45.847Z,24.70
2019-01-26T06:55:45.840Z,22.20
2019-01-26T06:56:45.837Z,22.30
2019-01-26T06:57:45.843Z,24.40
2019-01-26T06:58:45.828Z,20.00
2019-01-26T06:59:45.795Z,20.20
2019-01-26T07:00:45.787Z,20.20
2019-01-26T07:01:45.771Z,22.10
2019-01-26T07:02:45.768Z,23.00
2019-01-26T07:03:46.164Z,22.90
2019-01-26T07:04:45.742Z,20.70
2019-01-26T07:05:45.728Z,22.30
2019-01-26T07:06:45.712Z,22.50
2019-01-26T07:07:45.703Z,21.90
2019-01-26T07:08:45.730Z,22.10
2019-01-26T07:09:45.683Z,21.80
2019-01-26T07:10:45.680Z,22.10
2019-01-26T07:11:45.661Z,21.30
2019-01-26T07:12:45.647Z,23.10
2019-01-26T07:13:45.654Z,20.80
2019-01-26T07:14:45.664Z,20.70
2019-01-26T07:15:45.623Z,21.20
2019-01-26T07:16:45.613Z,22.60
2019-01-26T07:17:45.601Z,23.20
2019-01-26T07:18:45.610Z,21.90
2019-01-26T07:19:45.577Z,20.50
2019-01-26T07:20:45.559Z,19.30
2019-01-26T07:21:45.549Z,20.60
2019-01-26T07:22:45.547Z,20.90
2019-01-26T07:23:45.548Z,21.20
2019-01-26T07:24:45.544Z,21.60
2019-01-26T07:25:45.509Z,21.90
2019-01-26T07:26:45.496Z,21.90
2019-01-26T07:27:45.488Z,22.70
2019-01-26T07:28:45.487Z,21.30
2019-01-26T07:29:45.465Z,23.40
2019-01-26T07:30:45.451Z,19.80
2019-01-26T07:31:45.456Z,17.60
2019-01-26T07:32:45.428Z,20.20
2019-01-26T07:33:45.436Z,18.40
2019-01-26T07:34:45.421Z,18.20
2019-01-26T07:35:45.392Z,22.60
2019-01-26T07:36:45.388Z,20.10
2019-01-26T07:37:45.377Z,22.30
2019-01-26T07:38:45.363Z,21.40
2019-01-26T07:39:45.377Z,21.10
2019-01-26T07:40:45.337Z,20.70
2019-01-26T07:41:45.329Z,21.70
2019-01-26T07:42:45.323Z,20.60
2019-01-26T07:43:45.309Z,22.00
2019-01-26T07:44:45.329Z,22.00
2019-01-26T07:45:45.288Z,22.80
2019-01-26T07:46:45.272Z,20.60
2019-01-26T07:47:45.269Z,20.80
2019-01-26T07:48:45.251Z,22.70
2019-01-26T07:49:45.253Z,21.80
2019-01-26T07:50:45.236Z,22.70
2019-01-26T07:51:45.218Z,21.70
2019-01-26T07:52:45.228Z,20.40
2019-01-26T07:53:45.196Z,22.60
2019-01-26T07:54:45.213Z,21.10
2019-01-26T07:55:45.178Z,21.30
2019-01-26T07:56:45.172Z,21.60
2019-01-26T07:57:45.155Z,21.60
2019-01-26T07:58:45.144Z,20.00
2019-01-26T07:59:45.148Z,23.30
2019-01-26T08:00:45.122Z,20.80
2019-01-26T08:01:45.125Z,22.40
2019-01-26T08:02:45.109Z,20.00
2019-01-26T08:03:45.084Z,20.50
2019-01-26T08:04:45.091Z,20.60
2019-01-26T08:05:45.068Z,19.10
2019-01-26T08:06:45.054Z,21.40
2019-01-26T08:07:45.077Z,21.30
2019-01-26T08:08:45.034Z,21.70
2019-01-26T08:09:45.054Z,21.10
2019-01-26T08:10:45.007Z,20.60
2019-01-26T08:11:45.027Z,19.80
2019-01-26T08:12:44.996Z,22.70
2019-01-26T08:13:44.973Z,21.50
2019-01-26T08:14:44.982Z,19.80
2019-01-26T08:15:44.955Z,20.50
2019-01-26T08:16:44.964Z,18.20
2019-01-26T08:17:44.934Z,18.60
2019-01-26T08:18:44.928Z,17.70
2019-01-26T08:19:44.925Z,20.60
2019-01-26T08:20:44.896Z,17.40
2019-01-26T08:21:44.888Z,17.40
2019-01-26T08:22:44.883Z,18.60
2019-01-26T08:23:44.870Z,19.30
2019-01-26T08:24:44.873Z,19.60
2019-01-26T08:25:44.862Z,18.40
2019-01-26T08:26:44.836Z,19.70
2019-01-26T08:27:44.829Z,18.60
2019-01-26T08:28:44.813Z,18.00
2019-01-26T08:29:44.803Z,17.70
2019-01-26T08:30:44.810Z,17.70
2019-01-26T08:31:44.776Z,16.60
2019-01-26T08:32:44.780Z,18.20
2019-01-26T08:33:44.752Z,17.40
2019-01-26T08:34:44.748Z,19.60
2019-01-26T08:35:44.774Z,18.20
2019-01-26T08:36:44.735Z,18.20
2019-01-26T08:37:44.718Z,17.10
2019-01-26T08:38:44.698Z,19.10
2019-01-26T08:39:44.709Z,18.50
2019-01-26T08:40:44.710Z,17.80
2019-01-26T08:41:44.670Z,16.60
2019-01-26T08:42:44.666Z,16.20
2019-01-26T08:43:44.642Z,17.50
2019-01-26T08:44:44.632Z,17.60
2019-01-26T08:45:44.636Z,17.70
2019-01-26T08:46:44.628Z,17.20
2019-01-26T08:47:44.601Z,18.40
2019-01-26T08:48:44.589Z,18.30
2019-01-26T08:49:44.577Z,15.60
2019-01-26T08:50:44.571Z,16.40
2019-01-26T08:51:44.583Z,16.50
2019-01-26T08:52:44.557Z,17.40
2019-01-26T08:53:44.549Z,17.00
2019-01-26T08:54:44.522Z,20.60
2019-01-26T08:55:44.514Z,18.30
2019-01-26T08:56:44.523Z,18.00
2019-01-26T08:57:44.494Z,17.60
2019-01-26T08:58:44.496Z,16.60
2019-01-26T08:59:44.468Z,17.30
2019-01-26T09:00:44.456Z,18.00
2019-01-26T09:01:44.496Z,18.10
2019-01-26T09:02:44.439Z,15.80
2019-01-26T09:03:44.429Z,16.90
2019-01-26T09:04:44.414Z,17.90
2019-01-26T09:05:44.413Z,17.20
2019-01-26T09:06:44.409Z,18.00
2019-01-26T09:07:44.384Z,16.80
2019-01-26T09:08:44.368Z,17.50
2019-01-26T09:09:44.360Z,16.40
2019-01-26T09:10:44.349Z,16.80
2019-01-26T09:11:44.372Z,16.90
2019-01-26T09:12:44.322Z,18.60
2019-01-26T09:13:44.314Z,18.20
2019-01-26T09:14:44.351Z,16.90
2019-01-26T09:15:44.298Z,18.30
2019-01-26T09:16:44.306Z,17.90
2019-01-26T09:17:44.269Z,16.60
2019-01-26T09:18:44.263Z,19.50
2019-01-26T09:19:44.247Z,16.00
2019-01-26T09:20:44.237Z,16.00
2019-01-26T09:21:44.223Z,18.30
2019-01-26T09:22:44.247Z,16.20
2019-01-26T09:23:44.206Z,16.40
2019-01-26T09:24:44.194Z,15.90
2019-01-26T09:25:44.186Z,18.50
2019-01-26T09:26:44.170Z,16.90
2019-01-26T09:27:44.159Z,18.00
2019-01-26T09:28:44.182Z,19.20
2019-01-26T09:29:44.135Z,17.10
2019-01-26T09:30:44.133Z,18.50
2019-01-26T09:31:44.123Z,17.80
2019-01-26T09:32:44.108Z,18.30
2019-01-26T09:33:44.111Z,17.20
2019-01-26T09:34:44.079Z,17.10
2019-01-26T09:35:44.064Z,16.30
2019-01-26T09:36:44.071Z,16.60
2019-01-26T09:37:44.048Z,16.70
2019-01-26T09:38:44.078Z,17.20
2019-01-26T09:39:44.025Z,16.50
2019-01-26T09:40:44.952Z,17.00
2019-01-26T09:41:44.003Z,17.40
2019-01-26T09:42:44.008Z,24.30
2019-01-26T09:43:44.001Z,45.30
2019-01-26T09:44:43.987Z,69.50
2019-01-26T09:45:43.959Z,21.40
2019-01-26T09:46:43.958Z,19.50
2019-01-26T09:47:43.936Z,19.80
2019-01-26T09:48:46.313Z,109.20
2019-01-26T09:49:43.928Z,35.80
2019-01-26T09:50:43.913Z,19.60
2019-01-26T09:51:43.894Z,50.90
2019-01-26T09:52:43.878Z,32.70
2019-01-26T09:53:43.884Z,35.20
2019-01-26T09:54:43.867Z,30.40
2019-01-26T09:55:43.842Z,19.20
2019-01-26T09:56:43.842Z,20.90
2019-01-26T09:57:43.831Z,24.70
2019-01-26T09:58:43.828Z,23.90
2019-01-26T09:59:43.831Z,20.40
2019-01-26T10:00:43.788Z,18.90
2019-01-26T10:01:43.779Z,18.80
2019-01-26T10:02:43.765Z,17.80
2019-01-26T10:03:43.766Z,17.40
2019-01-26T10:04:43.769Z,17.80
2019-01-26T10:05:43.761Z,16.00
2019-01-26T10:06:43.726Z,16.50
2019-01-26T10:07:43.715Z,17.00
2019-01-26T10:08:43.757Z,17.30
2019-01-26T10:09:43.707Z,18.60
2019-01-26T10:10:43.688Z,18.90
2019-01-26T10:11:43.676Z,17.10
2019-01-26T10:12:43.655Z,18.20
2019-01-26T10:13:43.644Z,18.60
2019-01-26T10:14:43.659Z,17.60
2019-01-26T10:15:43.627Z,17.10
2019-01-26T10:16:43.616Z,16.20
2019-01-26T10:17:45.887Z,16.70
2019-01-26T10:18:43.598Z,17.70
2019-01-26T10:19:43.602Z,18.40
2019-01-26T10:20:43.574Z,15.70
2019-01-26T10:21:43.559Z,15.70
2019-01-26T10:22:43.551Z,15.90
2019-01-26T10:23:43.546Z,15.10
2019-01-26T10:24:43.545Z,16.50
2019-01-26T10:25:48.595Z,14.60
2019-01-26T10:26:44.519Z,15.10
2019-01-26T10:27:43.503Z,16.10
2019-01-26T10:28:43.502Z,15.10
2019-01-26T10:29:43.483Z,16.60
2019-01-26T10:30:43.493Z,15.70
2019-01-26T10:31:44.269Z,15.00
2019-01-26T10:32:43.439Z,15.70
2019-01-26T10:33:43.434Z,16.90
2019-01-26T10:34:43.442Z,13.90
2019-01-26T10:35:43.402Z,17.30
2019-01-26T10:36:43.398Z,15.00
2019-01-26T10:37:43.384Z,14.30
2019-01-26T10:38:43.370Z,16.50
2019-01-26T10:39:43.359Z,16.20
2019-01-26T10:40:43.364Z,16.50
2019-01-26T10:41:43.334Z,17.10
2019-01-26T10:42:43.366Z,15.50
2019-01-26T10:43:43.326Z,16.20
2019-01-26T10:44:43.316Z,20.60
2019-01-26T10:45:43.295Z,29.40
2019-01-26T10:46:43.322Z,24.10
2019-01-26T10:47:43.279Z,30.80
2019-01-26T10:48:43.271Z,20.30
2019-01-26T10:49:43.256Z,15.90
2019-01-26T10:50:43.255Z,16.20
2019-01-26T10:51:43.380Z,15.60
2019-01-26T10:52:43.215Z,13.90
2019-01-26T10:53:43.206Z,15.50
2019-01-26T10:54:43.207Z,14.40
2019-01-26T10:55:43.194Z,14.20
2019-01-26T10:56:43.211Z,15.60
2019-01-26T10:57:43.172Z,15.50
2019-01-26T10:58:43.151Z,13.30
2019-01-26T10:59:43.164Z,14.70
2019-01-26T11:00:43.165Z,15.00
2019-01-26T11:01:43.113Z,13.90
2019-01-26T11:02:43.147Z,14.00
2019-01-26T11:03:43.107Z,15.90
2019-01-26T11:04:43.102Z,12.40
2019-01-26T11:05:43.096Z,14.40
2019-01-26T11:06:43.063Z,14.60
2019-01-26T11:07:43.073Z,12.80
2019-01-26T11:08:43.081Z,14.70
2019-01-26T11:09:43.034Z,13.90
2019-01-26T11:10:43.018Z,12.90
2019-01-26T11:11:43.006Z,14.10
2019-01-26T11:12:43.008Z,13.70
2019-01-26T11:13:42.988Z,13.80
2019-01-26T11:14:42.979Z,14.60
2019-01-26T11:15:42.961Z,13.80
2019-01-26T11:16:42.968Z,14.10
2019-01-26T11:17:42.961Z,14.90
2019-01-26T11:18:42.932Z,13.80
2019-01-26T11:19:42.914Z,14.50
2019-01-26T11:20:42.906Z,17.30
2019-01-26T11:21:42.900Z,14.50
2019-01-26T11:22:42.911Z,13.90
2019-01-26T11:23:42.918Z,12.00
2019-01-26T11:24:42.865Z,14.40
2019-01-26T11:25:42.864Z,13.80
2019-01-26T11:26:48.952Z,14.90
2019-01-26T11:27:43.853Z,12.90
2019-01-26T11:28:42.815Z,13.20
2019-01-26T11:29:42.814Z,12.40
2019-01-26T11:30:42.802Z,12.70
2019-01-26T11:31:42.802Z,13.30
2019-01-26T11:32:42.808Z,13.70
2019-01-26T11:33:42.864Z,14.90
2019-01-26T11:34:42.755Z,13.00
2019-01-26T11:35:42.751Z,12.00
2019-01-26T11:36:42.742Z,13.50
2019-01-26T11:37:42.767Z,12.50
2019-01-26T11:38:42.728Z,11.80
2019-01-26T11:39:42.694Z,13.70
2019-01-26T11:40:42.689Z,12.90
2019-01-26T11:41:42.685Z,15.30
2019-01-26T11:42:42.689Z,13.40
2019-01-26T11:43:42.699Z,12.40
2019-01-26T11:44:42.697Z,13.00
2019-01-26T11:45:42.641Z,14.60
2019-01-26T11:46:42.650Z,13.90
2019-01-26T11:47:42.622Z,12.90
2019-01-26T11:48:42.615Z,14.30
2019-01-26T11:49:42.590Z,14.80
2019-01-26T11:50:42.612Z,13.50
2019-01-26T11:51:42.567Z,14.10
2019-01-26T11:52:42.568Z,15.00
2019-01-26T11:53:42.566Z,14.40
2019-01-26T11:54:42.542Z,14.40
2019-01-26T11:55:42.547Z,15.50
2019-01-26T11:56:42.571Z,13.20
2019-01-26T11:57:42.538Z,13.90
2019-01-26T11:58:42.522Z,15.70
2019-01-26T11:59:42.535Z,13.60
2019-01-26T12:00:42.491Z,16.10
2019-01-26T12:01:42.465Z,15.00
2019-01-26T12:02:42.466Z,12.80
2019-01-26T12:03:42.480Z,14.50
2019-01-26T12:04:42.438Z,13.90
2019-01-26T12:05:42.414Z,13.90
2019-01-26T12:06:42.416Z,14.80
2019-01-26T12:07:42.412Z,12.90
2019-01-26T12:08:42.387Z,14.20
2019-01-26T12:09:43.906Z,14.10
2019-01-26T12:10:42.369Z,14.60
2019-01-26T12:11:42.350Z,13.30
2019-01-26T12:12:42.361Z,17.50
2019-01-26T12:13:42.463Z,16.00
2019-01-26T12:14:42.334Z,15.20
2019-01-26T12:15:42.328Z,12.70
2019-01-26T12:16:42.331Z,14.50
2019-01-26T12:17:42.285Z,14.30
2019-01-26T12:18:42.293Z,12.70
2019-01-26T12:19:42.289Z,13.30
2019-01-26T12:20:42.255Z,13.70
2019-01-26T12:21:42.249Z,13.80
2019-01-26T12:22:42.240Z,13.30
2019-01-26T12:23:42.230Z,13.90
2019-01-26T12:24:42.245Z,14.20
2019-01-26T12:25:42.253Z,13.10
2019-01-26T12:26:42.212Z,14.30
2019-01-26T12:27:42.180Z,15.30
2019-01-26T12:28:42.169Z,24.10
2019-01-26T12:29:42.185Z,15.60
2019-01-26T12:30:42.148Z,40.50
2019-01-26T12:31:42.154Z,37.20
2019-01-26T12:32:42.128Z,20.70
2019-01-26T12:33:42.150Z,47.20
2019-01-26T12:34:42.139Z,32.00
2019-01-26T12:35:42.113Z,27.40
2019-01-26T12:36:42.081Z,17.10
2019-01-26T12:37:42.069Z,13.40
2019-01-26T12:38:42.071Z,13.20
2019-01-26T12:39:42.044Z,10.90
2019-01-26T12:40:42.059Z,11.80
2019-01-26T12:41:42.036Z,13.30
2019-01-26T12:42:42.021Z,14.90
2019-01-26T12:43:42.006Z,11.80
2019-01-26T12:44:42.006Z,11.90
2019-01-26T12:45:42.014Z,11.60
2019-01-26T12:46:41.977Z,11.90
2019-01-26T12:47:41.967Z,12.00
2019-01-26T12:48:41.950Z,11.20
2019-01-26T12:49:41.939Z,13.50
2019-01-26T12:50:41.944Z,10.80
2019-01-26T12:51:41.926Z,11.20
2019-01-26T12:52:41.925Z,12.10